createdAt,value
2017-08-12T00:01:39.920Z,5.20
2017-08-12T00:04:07.688Z,6.23
2017-08-12T00:06:35.373Z,5.33
2017-08-12T00:09:03.033Z,4.93
2017-08-12T00:11:30.778Z,5.50
2017-08-12T00:13:58.539Z,6.40
2017-08-12T00:16:26.407Z,7.00
2017-08-12T00:18:54.039Z,9.57
2017-08-12T00:21:21.837Z,8.80
2017-08-12T00:23:49.516Z,5.63
2017-08-12T00:26:17.275Z,5.30
2017-08-12T00:28:45.023Z,7.60
2017-08-12T00:31:12.704Z,7.70
2017-08-12T00:33:40.447Z,4.03
2017-08-12T00:36:08.210Z,5.23
2017-08-12T00:38:35.976Z,3.63
2017-08-12T00:41:03.661Z,5.00
2017-08-12T00:43:31.404Z,4.50
2017-08-12T00:45:59.095Z,3.50
2017-08-12T00:48:26.828Z,2.30
2017-08-12T00:50:54.509Z,4.20
2017-08-12T00:53:22.254Z,3.93
2017-08-12T00:55:50.017Z,3.43
2017-08-12T00:58:17.783Z,5.07
2017-08-12T01:00:45.652Z,3.37
2017-08-12T01:03:13.307Z,2.87
2017-08-12T01:05:41.077Z,3.33
2017-08-12T01:08:08.842Z,4.23
2017-08-12T01:10:36.511Z,3.50
2017-08-12T01:13:04.268Z,3.40
2017-08-12T01:15:32.031Z,5.53
2017-08-12T01:17:59.794Z,3.33
2017-08-12T01:20:27.561Z,3.50
2017-08-12T01:22:55.426Z,9.10
2017-08-12T01:25:23.117Z,3.60
2017-08-12T01:27:50.954Z,5.30
2017-08-12T01:30:18.721Z,6.03
2017-08-12T01:32:46.483Z,4.70
2017-08-12T01:35:14.273Z,5.37
2017-08-12T01:37:42.030Z,4.03
2017-08-12T01:40:09.882Z,3.77
2017-08-12T01:42:37.520Z,5.37
2017-08-12T01:45:05.225Z,4.03
2017-08-12T01:47:32.965Z,3.77
2017-08-12T01:50:00.730Z,3.73
2017-08-12T01:52:28.494Z,4.13
2017-08-12T01:54:56.259Z,3.60
2017-08-12T01:57:24.026Z,6.03
2017-08-12T01:59:51.712Z,4.30
2017-08-12T02:02:19.449Z,4.73
2017-08-12T02:04:47.215Z,4.80
2017-08-12T02:07:14.975Z,5.50
2017-08-12T02:09:42.844Z,3.93
2017-08-12T02:12:10.610Z,5.70
2017-08-12T02:14:38.287Z,3.93
2017-08-12T02:17:05.970Z,4.90
2017-08-12T02:19:34.512Z,8.40
2017-08-12T02:22:02.588Z,3.73
2017-08-12T02:24:30.358Z,5.93
2017-08-12T02:26:58.217Z,6.47
2017-08-12T02:29:25.982Z,6.77
2017-08-12T02:31:53.770Z,8.63
2017-08-12T02:34:21.515Z,7.77
2017-08-12T02:36:49.377Z,5.50
2017-08-12T02:39:17.142Z,10.50
2017-08-12T02:41:44.907Z,8.20
2017-08-12T02:44:12.669Z,5.80
2017-08-12T02:46:40.435Z,9.33
2017-08-12T02:49:08.129Z,9.43
2017-08-12T02:51:35.891Z,9.53
2017-08-12T02:54:03.625Z,8.40
2017-08-12T02:56:31.392Z,8.40
2017-08-12T02:58:59.155Z,6.40
2017-08-12T03:01:27.021Z,6.20
2017-08-12T03:03:54.784Z,7.67
2017-08-12T03:06:22.550Z,6.67
2017-08-12T03:08:50.311Z,8.10
2017-08-12T03:11:18.079Z,12.13
2017-08-12T03:13:45.839Z,7.77
2017-08-12T03:16:13.607Z,9.80
2017-08-12T03:18:41.369Z,15.10
2017-08-12T03:21:09.134Z,15.50
2017-08-12T03:23:36.899Z,9.23
2017-08-12T03:26:04.664Z,11.83
2017-08-12T03:28:32.526Z,11.93
2017-08-12T03:31:00.294Z,12.50
2017-08-12T03:33:28.060Z,20.23
2017-08-12T03:35:55.821Z,14.87
2017-08-12T03:38:23.586Z,13.27
2017-08-12T03:40:51.457Z,14.10
2017-08-12T03:43:19.217Z,16.67
2017-08-12T03:45:46.981Z,13.33
2017-08-12T03:48:14.744Z,17.43
2017-08-12T03:50:42.408Z,13.33
2017-08-12T03:53:10.176Z,17.23
2017-08-12T03:55:38.041Z,23.97
2017-08-12T03:58:05.678Z,14.63
2017-08-12T04:00:33.383Z,18.40
2017-08-12T04:03:01.128Z,13.87
2017-08-12T04:05:28.995Z,18.00
2017-08-12T04:07:56.627Z,23.93
2017-08-12T04:10:24.418Z,23.10
2017-08-12T04:12:52.185Z,16.27
2017-08-12T04:15:19.847Z,18.77
2017-08-12T04:17:47.610Z,15.77
2017-08-12T04:20:15.291Z,14.90
2017-08-12T04:22:43.037Z,14.70
2017-08-12T04:25:10.715Z,16.00
2017-08-12T04:27:38.385Z,17.50
2017-08-12T04:30:06.123Z,16.33
2017-08-12T04:32:33.991Z,14.30
2017-08-12T04:35:01.651Z,16.87
2017-08-12T04:37:29.520Z,21.93
2017-08-12T04:39:57.159Z,19.43
2017-08-12T04:42:24.962Z,17.00
2017-08-12T04:44:52.602Z,19.47
2017-08-12T04:47:20.268Z,16.30
2017-08-12T04:49:47.948Z,16.37
2017-08-12T04:52:15.695Z,18.13
2017-08-12T04:54:43.484Z,15.20
2017-08-12T04:57:11.223Z,21.23
2017-08-12T04:59:38.985Z,17.83
2017-08-12T05:02:06.648Z,17.60
2017-08-12T05:04:34.414Z,14.10
2017-08-12T05:07:02.179Z,15.57
2017-08-12T05:09:30.045Z,14.00
2017-08-12T05:11:57.681Z,15.77
2017-08-12T05:14:25.470Z,12.60
2017-08-12T05:16:53.236Z,16.20
2017-08-12T05:19:20.920Z,19.43
2017-08-12T05:21:48.659Z,15.70
2017-08-12T05:24:16.448Z,16.77
2017-08-12T05:26:44.188Z,16.40
2017-08-12T05:29:11.953Z,18.27
2017-08-12T05:31:39.823Z,12.70
2017-08-12T05:34:07.461Z,15.50
2017-08-12T05:36:35.174Z,14.33
2017-08-12T05:39:03.010Z,15.53
2017-08-12T05:41:30.693Z,12.00
2017-08-12T05:43:58.436Z,14.70
2017-08-12T05:46:26.201Z,14.10
2017-08-12T05:48:53.965Z,13.97
2017-08-12T05:51:21.729Z,17.97
2017-08-12T05:53:49.388Z,18.20
2017-08-12T05:56:17.156Z,14.33
2017-08-12T05:58:44.921Z,12.17
2017-08-12T06:01:12.687Z,13.17
2017-08-12T06:03:40.448Z,19.60
2017-08-12T06:06:08.110Z,12.90
2017-08-12T06:08:35.770Z,16.33
2017-08-12T06:11:03.639Z,15.27
2017-08-12T06:13:31.275Z,15.53
2017-08-12T06:15:59.066Z,18.47
2017-08-12T06:18:26.748Z,18.50
2017-08-12T06:20:54.592Z,13.43
2017-08-12T06:23:22.358Z,16.37
2017-08-12T06:25:50.221Z,15.13
2017-08-12T06:28:17.860Z,12.93
2017-08-12T06:30:45.651Z,15.20
2017-08-12T06:33:13.414Z,14.67
2017-08-12T06:35:41.178Z,19.17
2017-08-12T06:38:08.869Z,13.17
2017-08-12T06:40:36.519Z,18.07
2017-08-12T06:43:04.372Z,18.17
2017-08-12T06:45:32.136Z,14.00
2017-08-12T06:48:00.009Z,16.00
2017-08-12T06:50:27.765Z,17.07
2017-08-12T06:52:55.634Z,14.27
2017-08-12T06:55:23.398Z,18.13
2017-08-12T06:57:51.170Z,12.00
2017-08-12T07:00:19.026Z,14.90
2017-08-12T07:02:46.999Z,19.50
2017-08-12T07:05:14.779Z,16.30
2017-08-12T07:07:42.528Z,17.80
2017-08-12T07:10:10.290Z,25.53
2017-08-12T07:12:38.157Z,20.60
2017-08-12T07:15:05.815Z,19.57
2017-08-12T07:17:33.707Z,15.53
2017-08-12T07:20:03.011Z,23.37
2017-08-12T07:22:30.849Z,13.97
2017-08-12T07:24:58.920Z,12.80
2017-08-12T07:27:26.687Z,19.13
2017-08-12T07:29:54.350Z,15.70
2017-08-12T07:32:21.998Z,15.17
2017-08-12T07:34:49.776Z,13.50
2017-08-12T07:37:17.538Z,11.77
2017-08-12T07:39:45.303Z,10.50
2017-08-12T07:42:13.067Z,13.10
2017-08-12T07:44:40.853Z,9.70
2017-08-12T07:47:08.594Z,12.37
2017-08-12T07:49:36.257Z,11.90
2017-08-12T07:52:04.020Z,12.23
2017-08-12T07:54:31.785Z,12.50
2017-08-12T07:56:59.548Z,13.53
2017-08-12T07:59:27.312Z,10.50
2017-08-12T08:01:55.182Z,9.13
2017-08-12T08:04:22.810Z,11.17
2017-08-12T08:06:50.528Z,10.67
2017-08-12T08:09:18.400Z,9.77
2017-08-12T08:11:46.850Z,14.57
2017-08-12T08:14:14.615Z,11.50
2017-08-12T08:16:42.243Z,9.97
2017-08-12T08:19:10.043Z,12.93
2017-08-12T08:21:37.702Z,11.20
2017-08-12T08:24:05.428Z,11.10
2017-08-12T08:26:33.233Z,15.80
2017-08-12T08:29:01.100Z,18.03
2017-08-12T08:31:28.870Z,13.77
2017-08-12T08:33:56.850Z,13.70
2017-08-12T08:36:24.709Z,20.17
2017-08-12T08:38:52.585Z,15.30
2017-08-12T08:41:20.455Z,14.30
2017-08-12T08:43:48.238Z,14.83
2017-08-12T08:46:16.780Z,13.70
2017-08-12T08:48:44.550Z,14.33
2017-08-12T08:51:12.411Z,11.83
2017-08-12T08:53:40.284Z,12.93
2017-08-12T08:56:08.155Z,10.83
2017-08-12T08:58:35.893Z,10.43
2017-08-12T09:01:03.791Z,9.80
2017-08-12T09:03:31.658Z,8.63
2017-08-12T09:05:59.524Z,10.00
2017-08-12T09:08:27.318Z,9.03
2017-08-12T09:10:55.853Z,6.63
2017-08-12T09:13:23.740Z,9.57
2017-08-12T09:15:51.616Z,10.57
2017-08-12T09:18:19.369Z,8.87
2017-08-12T09:20:47.219Z,11.80
2017-08-12T09:23:14.983Z,9.13
2017-08-12T09:25:42.747Z,7.03
2017-08-12T09:28:10.467Z,6.83
2017-08-12T09:30:38.276Z,7.30
2017-08-12T09:33:06.020Z,6.63
2017-08-12T09:35:33.761Z,7.20
2017-08-12T09:38:01.596Z,7.00
2017-08-12T09:40:29.335Z,7.83
2017-08-12T09:42:57.218Z,4.80
2017-08-12T09:45:25.077Z,4.13
2017-08-12T09:47:52.853Z,5.87
2017-08-12T09:50:20.714Z,4.43
2017-08-12T09:52:48.522Z,4.60
2017-08-12T09:55:16.442Z,4.90
2017-08-12T09:57:44.317Z,4.57
2017-08-12T10:00:12.098Z,5.40
2017-08-12T10:02:40.713Z,3.47
2017-08-12T10:05:08.407Z,4.30
2017-08-12T10:07:36.217Z,7.60
2017-08-12T10:10:04.804Z,7.23
2017-08-12T10:12:33.342Z,4.87
2017-08-12T10:15:01.155Z,5.83
2017-08-12T10:17:29.803Z,9.10
2017-08-12T10:19:57.567Z,6.67
2017-08-12T10:22:25.375Z,8.87
2017-08-12T10:24:53.184Z,13.27
2017-08-12T10:27:20.898Z,7.80
2017-08-12T10:29:49.449Z,8.70
2017-08-12T10:32:17.196Z,9.37
2017-08-12T10:34:44.877Z,11.47
2017-08-12T10:37:12.724Z,12.33
2017-08-12T10:39:40.488Z,17.80
2017-08-12T10:42:08.241Z,16.83
2017-08-12T10:44:35.913Z,17.83
2017-08-12T10:47:03.804Z,14.10
2017-08-12T10:49:31.582Z,20.70
2017-08-12T10:52:00.132Z,22.53
2017-08-12T10:54:27.924Z,20.60
2017-08-12T10:56:55.759Z,20.50
2017-08-12T10:59:23.433Z,21.80
2017-08-12T11:01:51.190Z,16.00
2017-08-12T11:04:18.824Z,26.27
2017-08-12T11:06:46.527Z,25.10
2017-08-12T11:09:14.158Z,25.80
2017-08-12T11:11:41.861Z,22.60
2017-08-12T11:14:09.699Z,22.17
2017-08-12T11:16:37.566Z,20.57
2017-08-12T11:19:05.226Z,24.93
2017-08-12T11:21:33.093Z,25.53
2017-08-12T11:24:00.775Z,26.40
2017-08-12T11:26:28.520Z,23.87
2017-08-12T11:28:56.386Z,26.10
2017-08-12T11:31:24.066Z,27.87
2017-08-12T11:33:51.811Z,22.20
2017-08-12T11:36:19.679Z,25.53
2017-08-12T11:38:47.546Z,26.93
2017-08-12T11:41:15.312Z,29.93
2017-08-12T11:43:42.983Z,25.70
2017-08-12T11:46:10.736Z,21.03
2017-08-12T11:48:38.611Z,22.10
2017-08-12T11:51:06.263Z,24.27
2017-08-12T11:53:34.028Z,27.10
2017-08-12T11:56:01.706Z,20.77
2017-08-12T11:58:29.386Z,16.93
2017-08-12T12:03:24.880Z,17.80
2017-08-12T12:05:52.563Z,16.93
2017-08-12T12:08:20.309Z,18.93
2017-08-12T12:10:47.980Z,18.10
2017-08-12T12:13:15.737Z,17.20
2017-08-12T12:15:43.415Z,18.87
2017-08-12T12:18:11.061Z,19.60
2017-08-12T12:20:38.822Z,17.00
2017-08-12T12:23:06.522Z,19.27
2017-08-12T12:25:34.964Z,16.50
2017-08-12T12:28:02.649Z,14.97
2017-08-12T12:30:31.209Z,15.90
2017-08-12T12:32:58.975Z,16.33
2017-08-12T12:35:26.737Z,14.30
2017-08-12T12:37:54.501Z,17.00
2017-08-12T12:40:22.265Z,13.80
2017-08-12T12:42:49.900Z,14.87
2017-08-12T12:45:17.694Z,14.63
2017-08-12T12:47:45.382Z,14.90
2017-08-12T12:50:13.136Z,10.63
2017-08-12T12:52:40.882Z,13.07
2017-08-12T12:55:08.569Z,10.10
2017-08-12T12:57:36.254Z,9.70
2017-08-12T13:00:04.795Z,9.97
2017-08-12T13:02:32.551Z,9.07
2017-08-12T13:05:00.319Z,11.87
2017-08-12T13:07:28.001Z,8.70
2017-08-12T13:09:55.631Z,10.20
2017-08-12T13:12:23.298Z,8.00
2017-08-12T13:14:51.067Z,7.23
2017-08-12T13:17:18.833Z,8.13
2017-08-12T13:19:46.599Z,9.47
2017-08-12T13:22:14.463Z,7.70
2017-08-12T13:24:42.229Z,9.00
2017-08-12T13:27:10.119Z,5.77
2017-08-12T13:29:37.961Z,6.63
2017-08-12T13:32:05.631Z,6.17
2017-08-12T13:34:33.447Z,5.30
2017-08-12T13:37:01.381Z,5.07
2017-08-12T13:39:29.219Z,5.43
2017-08-12T13:41:57.106Z,5.50
2017-08-12T13:44:24.975Z,4.30
2017-08-12T13:46:52.735Z,5.00
2017-08-12T13:49:20.485Z,4.03
2017-08-12T13:51:48.254Z,4.17
2017-08-12T13:54:15.986Z,3.30
2017-08-12T13:56:43.880Z,3.07
2017-08-12T13:59:11.656Z,6.20
2017-08-12T14:01:39.531Z,4.20
2017-08-12T14:04:08.710Z,2.60
2017-08-12T14:06:36.368Z,1.90
2017-08-12T14:09:04.142Z,1.83
2017-08-12T14:11:32.002Z,2.60
2017-08-12T14:13:59.685Z,1.63
2017-08-12T14:16:27.428Z,1.93
2017-08-12T14:18:55.295Z,1.70
2017-08-12T14:21:23.056Z,2.27
2017-08-12T14:23:50.823Z,1.47
2017-08-12T14:26:18.482Z,1.97
2017-08-12T14:28:46.276Z,1.70
2017-08-12T14:31:14.114Z,1.70
2017-08-12T14:33:41.878Z,1.60
2017-08-12T14:36:09.750Z,2.17
2017-08-12T14:38:37.379Z,1.50
2017-08-12T14:41:05.067Z,1.53
2017-08-12T14:43:32.837Z,1.77
2017-08-12T14:46:00.595Z,2.00
2017-08-12T14:48:28.373Z,1.50
2017-08-12T14:50:56.234Z,1.53
2017-08-12T14:53:23.991Z,1.20
2017-08-12T14:55:51.672Z,1.60
2017-08-12T14:58:19.420Z,1.67
2017-08-12T15:00:47.184Z,1.50
2017-08-12T15:03:14.948Z,1.37
2017-08-12T15:05:42.711Z,1.17
2017-08-12T15:08:10.579Z,1.13
2017-08-12T15:10:38.271Z,1.27
2017-08-12T15:13:06.005Z,1.10
2017-08-12T15:15:33.667Z,1.40
2017-08-12T15:18:01.433Z,1.87
2017-08-12T15:20:29.095Z,1.40
2017-08-12T15:22:56.756Z,1.10
2017-08-12T15:25:24.518Z,1.50
2017-08-12T15:27:52.282Z,1.60
2017-08-12T15:30:20.046Z,1.57
2017-08-12T15:32:47.912Z,1.53
2017-08-12T15:35:15.679Z,2.60
2017-08-12T15:37:43.545Z,2.03
2017-08-12T15:40:11.309Z,1.93
2017-08-12T15:42:39.071Z,1.90
2017-08-12T15:45:06.699Z,2.20
2017-08-12T15:47:34.420Z,2.10
2017-08-12T15:50:02.260Z,2.60
2017-08-12T15:52:29.943Z,2.10
2017-08-12T15:54:57.690Z,2.70
2017-08-12T15:57:25.372Z,2.67
2017-08-12T15:59:53.058Z,2.00
2017-08-12T16:02:21.700Z,3.00
2017-08-12T16:04:49.379Z,2.63
2017-08-12T16:07:17.229Z,2.53
2017-08-12T16:09:44.988Z,2.23
2017-08-12T16:12:12.754Z,2.63
2017-08-12T16:14:40.519Z,3.20
2017-08-12T16:17:08.306Z,3.60
2017-08-12T16:19:36.082Z,3.87
2017-08-12T16:22:04.554Z,3.87
2017-08-12T16:24:32.396Z,4.20
2017-08-12T16:27:00.084Z,3.23
2017-08-12T16:29:27.838Z,3.70
2017-08-12T16:31:55.586Z,3.47
2017-08-12T16:34:23.453Z,4.07
2017-08-12T16:36:51.217Z,5.00
2017-08-12T16:39:18.982Z,4.50
2017-08-12T16:41:46.666Z,4.83
2017-08-12T16:44:14.445Z,4.40
2017-08-12T16:46:42.991Z,4.70
2017-08-12T16:49:11.598Z,5.50
2017-08-12T16:51:39.542Z,6.03
2017-08-12T16:54:07.532Z,5.10
2017-08-12T16:56:35.276Z,6.10
2017-08-12T16:59:03.163Z,5.90
2017-08-12T17:01:31.021Z,5.37
2017-08-12T17:03:58.894Z,5.70
2017-08-12T17:06:27.340Z,4.77
2017-08-12T17:08:55.448Z,5.80
2017-08-12T17:11:23.420Z,5.70
2017-08-12T17:13:51.277Z,4.50
2017-08-12T17:16:19.143Z,4.13
2017-08-12T17:18:47.119Z,7.70
2017-08-12T17:21:14.984Z,5.70
2017-08-12T17:23:42.854Z,6.70
2017-08-12T17:26:10.721Z,7.03
2017-08-12T17:28:38.687Z,5.10
2017-08-12T17:31:06.553Z,6.43
2017-08-12T17:33:34.525Z,4.60
2017-08-12T17:36:02.491Z,7.03
2017-08-12T17:38:30.359Z,6.10
2017-08-12T17:40:58.434Z,5.90
2017-08-12T17:43:26.301Z,7.07
2017-08-12T17:45:54.266Z,7.20
2017-08-12T17:48:22.136Z,7.73
2017-08-12T17:50:50.107Z,6.20
2017-08-12T17:53:18.066Z,7.13
2017-08-12T17:55:45.935Z,9.70
2017-08-12T17:58:13.799Z,9.07
2017-08-12T18:00:41.768Z,9.77
2017-08-12T18:03:09.641Z,8.80
2017-08-12T18:05:37.503Z,8.97
2017-08-12T18:08:05.195Z,9.60
2017-08-12T18:10:33.591Z,12.00
2017-08-12T18:13:01.218Z,8.77
2017-08-12T18:15:28.970Z,7.43
2017-08-12T18:17:56.603Z,10.87
2017-08-12T18:20:24.481Z,8.03
2017-08-12T18:22:52.143Z,11.53
2017-08-12T18:25:20.016Z,7.93
2017-08-12T18:27:47.780Z,11.97
2017-08-12T18:30:15.541Z,15.00
2017-08-12T18:32:43.203Z,12.10
2017-08-12T18:35:10.966Z,15.20
2017-08-12T18:37:38.832Z,8.90
2017-08-12T18:40:06.598Z,8.23
2017-08-12T18:42:34.281Z,9.83
2017-08-12T18:45:02.023Z,11.00
2017-08-12T18:47:29.655Z,9.30
2017-08-12T18:49:57.450Z,10.60
2017-08-12T18:52:25.109Z,9.97
2017-08-12T18:54:52.976Z,7.20
2017-08-12T18:57:20.852Z,8.63
2017-08-12T18:59:48.571Z,7.80
2017-08-12T19:02:16.300Z,7.00
2017-08-12T19:04:44.140Z,11.40
2017-08-12T19:07:11.901Z,9.70
2017-08-12T19:09:40.806Z,7.83
2017-08-12T19:12:08.778Z,9.80
2017-08-12T19:14:36.644Z,7.03
2017-08-12T19:17:04.622Z,8.10
2017-08-12T19:19:32.887Z,8.87
2017-08-12T19:22:00.760Z,7.73
2017-08-12T19:24:28.633Z,7.33
2017-08-12T19:26:57.309Z,7.50
2017-08-12T19:29:25.282Z,8.90
2017-08-12T19:31:53.251Z,7.97
2017-08-12T19:34:21.525Z,9.03
2017-08-12T19:36:49.395Z,8.50
2017-08-12T19:39:17.255Z,6.33
2017-08-12T19:41:45.127Z,14.10
2017-08-12T19:44:12.986Z,13.13
2017-08-12T19:46:40.871Z,11.90
2017-08-12T19:49:08.824Z,11.07
2017-08-12T19:51:36.802Z,11.10
2017-08-12T19:54:04.768Z,9.63
2017-08-12T19:56:32.631Z,10.70
2017-08-12T19:59:00.507Z,11.53
2017-08-12T20:01:28.363Z,10.03
2017-08-12T20:03:56.436Z,7.57
2017-08-12T20:06:24.408Z,6.87
2017-08-12T20:08:52.281Z,7.77
2017-08-12T20:11:20.235Z,7.87
2017-08-12T20:13:48.105Z,7.10
2017-08-12T20:16:16.074Z,7.87
2017-08-12T20:18:44.043Z,9.63
2017-08-12T20:21:11.914Z,10.00
2017-08-12T20:23:39.880Z,8.30
2017-08-12T20:26:07.746Z,8.33
2017-08-12T20:28:35.616Z,5.67
2017-08-12T20:31:03.485Z,9.80
2017-08-12T20:33:31.354Z,5.40
2017-08-12T20:35:59.320Z,5.90
2017-08-12T20:38:27.191Z,8.30
2017-08-12T20:40:54.928Z,6.67
2017-08-12T20:43:22.694Z,5.13
2017-08-12T20:45:50.362Z,7.93
2017-08-12T20:48:17.998Z,5.53
2017-08-12T20:50:45.782Z,7.30
2017-08-12T20:53:13.548Z,4.10
2017-08-12T20:55:41.326Z,8.57
2017-08-12T20:58:09.077Z,21.30
2017-08-12T21:00:36.762Z,7.60
2017-08-12T21:03:04.428Z,8.90
2017-08-12T21:05:32.162Z,11.13
2017-08-12T21:08:00.030Z,10.03
2017-08-12T21:10:27.693Z,6.47
2017-08-12T21:12:55.370Z,7.47
2017-08-12T21:15:23.219Z,11.17
2017-08-12T21:17:50.899Z,8.20
2017-08-12T21:20:18.750Z,7.47
2017-08-12T21:22:46.436Z,11.87
2017-08-12T21:25:14.279Z,7.43
2017-08-12T21:27:42.043Z,6.30
2017-08-12T21:30:09.724Z,5.90
2017-08-12T21:32:37.575Z,8.10
2017-08-12T21:35:05.230Z,6.03
2017-08-12T21:37:33.000Z,13.13
2017-08-12T21:40:00.761Z,6.93
2017-08-12T21:42:28.421Z,10.93
2017-08-12T21:44:56.291Z,10.63
2017-08-12T21:47:24.056Z,7.57
2017-08-12T21:49:51.711Z,8.90
2017-08-12T21:52:19.395Z,6.90
2017-08-12T21:54:47.142Z,6.50
2017-08-12T21:57:15.217Z,9.40
2017-08-12T21:59:43.800Z,7.50
2017-08-12T22:02:11.562Z,6.00
2017-08-12T22:04:39.231Z,7.30
2017-08-12T22:07:06.988Z,9.47
2017-08-12T22:09:34.675Z,7.37
2017-08-12T22:12:02.437Z,5.80
2017-08-12T22:14:30.199Z,7.03
2017-08-12T22:16:57.871Z,13.23
2017-08-12T22:19:26.426Z,7.70
2017-08-12T22:21:54.241Z,7.00
2017-08-12T22:24:22.156Z,6.03
2017-08-12T22:26:50.661Z,12.70
2017-08-12T22:29:18.400Z,4.80
2017-08-12T22:31:46.316Z,6.60
2017-08-12T22:34:14.787Z,7.00
2017-08-12T22:36:43.344Z,5.97
2017-08-12T22:39:11.201Z,5.40
2017-08-12T22:41:38.879Z,5.67
2017-08-12T22:44:06.624Z,6.67
2017-08-12T22:46:34.304Z,8.67
2017-08-12T22:49:02.053Z,5.70
2017-08-12T22:51:29.817Z,5.47
2017-08-12T22:53:57.613Z,7.80
2017-08-12T22:56:26.079Z,6.27
2017-08-12T22:58:53.824Z,5.50
2017-08-12T23:01:21.503Z,6.73
2017-08-12T23:03:49.250Z,9.57
2017-08-12T23:06:17.117Z,6.60
2017-08-12T23:08:44.880Z,8.27
2017-08-12T23:11:12.648Z,11.33
2017-08-12T23:13:40.514Z,6.70
2017-08-12T23:16:08.278Z,8.00
2017-08-12T23:18:35.961Z,7.67
2017-08-12T23:21:03.806Z,7.70
2017-08-12T23:23:31.488Z,8.20
2017-08-12T23:25:59.336Z,9.27
2017-08-12T23:28:27.021Z,8.00
2017-08-12T23:30:54.778Z,7.50
2017-08-12T23:33:22.549Z,6.37
2017-08-12T23:35:51.213Z,7.50
2017-08-12T23:38:18.896Z,8.47
2017-08-12T23:40:46.743Z,5.77
2017-08-12T23:43:14.432Z,7.50
2017-08-12T23:45:42.270Z,10.60
2017-08-12T23:48:10.046Z,12.57
2017-08-12T23:50:37.799Z,12.97
2017-08-12T23:53:05.466Z,14.20
2017-08-12T23:55:33.224Z,6.50
2017-08-12T23:58:00.904Z,9.00
